sensor_id;sensor_type;location;lat;lon;timestamp;temperature;humidity
76120;DHT22;64852;48.092;-1.640;2023-04-03T00:00:45;8.50;99.90
76120;DHT22;64852;48.092;-1.640;2023-04-03T00:03:10;8.50;99.90
76120;DHT22;64852;48.092;-1.640;2023-04-03T00:05:36;8.50;99.90
76120;DHT22;64852;48.092;-1.640;2023-04-03T00:08:02;9.30;99.90
76120;DHT22;64852;48.092;-1.640;2023-04-03T00:10:27;9.20;99.90
76120;DHT22;64852;48.092;-1.640;2023-04-03T00:12:53;8.90;99.90
76120;DHT22;64852;48.092;-1.640;2023-04-03T00:15:19;8.40;99.90
76120;DHT22;64852;48.092;-1.640;2023-04-03T00:17:44;8.30;99.90
76120;DHT22;64852;48.092;-1.640;2023-04-03T00:20:10;8.50;99.90
76120;DHT22;64852;48.092;-1.640;2023-04-03T00:22:36;8.40;99.90
76120;DHT22;64852;48.092;-1.640;2023-04-03T00:25:02;8.20;99.90
76120;DHT22;64852;48.092;-1.640;2023-04-03T00:27:27;8.30;99.90
76120;DHT22;64852;48.092;-1.640;2023-04-03T00:29:53;8.20;99.90
76120;DHT22;64852;48.092;-1.640;2023-04-03T00:32:18;8.40;99.90
76120;DHT22;64852;48.092;-1.640;2023-04-03T00:34:44;8.20;99.90
76120;DHT22;64852;48.092;-1.640;2023-04-03T00:37:10;8.60;99.90
76120;DHT22;64852;48.092;-1.640;2023-04-03T00:39:35;8.10;99.90
76120;DHT22;64852;48.092;-1.640;2023-04-03T00:42:00;8.10;99.90
76120;DHT22;64852;48.092;-1.640;2023-04-03T00:46:57;8.00;99.90
76120;DHT22;64852;48.092;-1.640;2023-04-03T00:49:23;8.00;99.90
76120;DHT22;64852;48.092;-1.640;2023-04-03T00:51:48;8.00;99.90
76120;DHT22;64852;48.092;-1.640;2023-04-03T00:54:14;8.00;99.90
76120;DHT22;64852;48.092;-1.640;2023-04-03T00:56:40;8.00;99.90
76120;DHT22;64852;48.092;-1.640;2023-04-03T00:59:16;9.00;99.90
76120;DHT22;64852;48.092;-1.640;2023-04-03T01:01:47;7.90;99.90
76120;DHT22;64852;48.092;-1.640;2023-04-03T01:06:52;7.80;99.90
76120;DHT22;64852;48.092;-1.640;2023-04-03T01:09:17;8.70;99.90
76120;DHT22;64852;48.092;-1.640;2023-04-03T01:11:43;8.50;99.90
76120;DHT22;64852;48.092;-1.640;2023-04-03T01:14:08;7.90;99.90
76120;DHT22;64852;48.092;-1.640;2023-04-03T01:16:34;8.00;99.90
76120;DHT22;64852;48.092;-1.640;2023-04-03T01:19:00;7.90;99.90
76120;DHT22;64852;48.092;-1.640;2023-04-03T01:26:40;7.70;99.90
76120;DHT22;64852;48.092;-1.640;2023-04-03T01:29:06;7.80;99.90
76120;DHT22;64852;48.092;-1.640;2023-04-03T01:34:01;7.50;99.90
76120;DHT22;64852;48.092;-1.640;2023-04-03T01:36:28;7.60;99.90
76120;DHT22;64852;48.092;-1.640;2023-04-03T01:38:54;7.60;99.90
76120;DHT22;64852;48.092;-1.640;2023-04-03T01:41:20;7.70;99.90
76120;DHT22;64852;48.092;-1.640;2023-04-03T01:43:46;8.20;99.90
76120;DHT22;64852;48.092;-1.640;2023-04-03T01:46:12;7.50;99.90
76120;DHT22;64852;48.092;-1.640;2023-04-03T01:48:38;7.60;99.90
76120;DHT22;64852;48.092;-1.640;2023-04-03T01:51:03;7.60;99.90
76120;DHT22;64852;48.092;-1.640;2023-04-03T01:53:29;7.40;99.90
76120;DHT22;64852;48.092;-1.640;2023-04-03T01:55:54;7.50;99.90
76120;DHT22;64852;48.092;-1.640;2023-04-03T01:58:20;8.00;99.90
76120;DHT22;64852;48.092;-1.640;2023-04-03T02:00:45;7.80;99.90
76120;DHT22;64852;48.092;-1.640;2023-04-03T02:03:11;7.50;99.90
76120;DHT22;64852;48.092;-1.640;2023-04-03T02:05:37;7.90;99.90
76120;DHT22;64852;48.092;-1.640;2023-04-03T02:08:02;7.50;99.90
76120;DHT22;64852;48.092;-1.640;2023-04-03T02:10:28;7.50;99.90
76120;DHT22;64852;48.092;-1.640;2023-04-03T02:12:53;7.80;99.90
76120;DHT22;64852;48.092;-1.640;2023-04-03T02:15:19;7.60;99.90
76120;DHT22;64852;48.092;-1.640;2023-04-03T02:17:45;8.00;99.90
76120;DHT22;64852;48.092;-1.640;2023-04-03T02:20:10;8.10;99.90
76120;DHT22;64852;48.092;-1.640;2023-04-03T02:22:36;7.60;99.90
76120;DHT22;64852;48.092;-1.640;2023-04-03T02:25:01;7.70;99.90
76120;DHT22;64852;48.092;-1.640;2023-04-03T02:27:27;7.30;99.90
76120;DHT22;64852;48.092;-1.640;2023-04-03T02:29:52;7.70;99.90
76120;DHT22;64852;48.092;-1.640;2023-04-03T02:32:18;7.40;99.90
76120;DHT22;64852;48.092;-1.640;2023-04-03T02:34:43;8.10;99.90
76120;DHT22;64852;48.092;-1.640;2023-04-03T02:37:09;7.90;99.90
76120;DHT22;64852;48.092;-1.640;2023-04-03T02:39:34;7.60;99.90
76120;DHT22;64852;48.092;-1.640;2023-04-03T02:42:00;7.70;99.90
76120;DHT22;64852;48.092;-1.640;2023-04-03T02:44:26;8.20;99.90
76120;DHT22;64852;48.092;-1.640;2023-04-03T02:46:51;8.30;99.90
76120;DHT22;64852;48.092;-1.640;2023-04-03T02:49:17;7.70;99.90
76120;DHT22;64852;48.092;-1.640;2023-04-03T02:51:42;7.90;99.90
76120;DHT22;64852;48.092;-1.640;2023-04-03T02:54:08;7.50;99.90
76120;DHT22;64852;48.092;-1.640;2023-04-03T02:56:33;8.30;99.90
76120;DHT22;64852;48.092;-1.640;2023-04-03T02:58:59;8.70;99.90
76120;DHT22;64852;48.092;-1.640;2023-04-03T03:01:25;8.00;99.90
76120;DHT22;64852;48.092;-1.640;2023-04-03T03:03:53;7.20;99.90
76120;DHT22;64852;48.092;-1.640;2023-04-03T03:06:19;7.90;99.90
76120;DHT22;64852;48.092;-1.640;2023-04-03T03:08:45;8.00;99.90
76120;DHT22;64852;48.092;-1.640;2023-04-03T03:11:11;7.60;99.90
76120;DHT22;64852;48.092;-1.640;2023-04-03T03:13:37;7.10;99.90
76120;DHT22;64852;48.092;-1.640;2023-04-03T03:16:02;7.90;99.90
76120;DHT22;64852;48.092;-1.640;2023-04-03T03:18:28;7.10;99.90
76120;DHT22;64852;48.092;-1.640;2023-04-03T03:20:54;8.10;99.90
76120;DHT22;64852;48.092;-1.640;2023-04-03T03:23:21;7.40;99.90
76120;DHT22;64852;48.092;-1.640;2023-04-03T03:25:47;7.10;99.90
76120;DHT22;64852;48.092;-1.640;2023-04-03T03:28:12;6.70;99.90
76120;DHT22;64852;48.092;-1.640;2023-04-03T03:30:38;6.70;99.90
76120;DHT22;64852;48.092;-1.640;2023-04-03T03:33:03;6.60;99.90
76120;DHT22;64852;48.092;-1.640;2023-04-03T03:35:29;7.70;99.90
76120;DHT22;64852;48.092;-1.640;2023-04-03T03:37:54;6.60;99.90
76120;DHT22;64852;48.092;-1.640;2023-04-03T03:40:20;6.50;99.90
76120;DHT22;64852;48.092;-1.640;2023-04-03T03:42:45;6.50;99.90
76120;DHT22;64852;48.092;-1.640;2023-04-03T03:45:11;7.00;99.90
76120;DHT22;64852;48.092;-1.640;2023-04-03T03:47:36;6.40;99.90
76120;DHT22;64852;48.092;-1.640;2023-04-03T03:50:02;7.30;99.90
76120;DHT22;64852;48.092;-1.640;2023-04-03T03:52:28;6.30;99.90
76120;DHT22;64852;48.092;-1.640;2023-04-03T03:54:55;7.20;99.90
76120;DHT22;64852;48.092;-1.640;2023-04-03T03:57:20;7.30;99.90
76120;DHT22;64852;48.092;-1.640;2023-04-03T03:59:46;6.20;99.90
76120;DHT22;64852;48.092;-1.640;2023-04-03T04:02:12;6.10;99.90
76120;DHT22;64852;48.092;-1.640;2023-04-03T04:04:38;6.60;99.90
76120;DHT22;64852;48.092;-1.640;2023-04-03T04:07:03;6.50;99.90
76120;DHT22;64852;48.092;-1.640;2023-04-03T04:09:29;6.00;99.90
76120;DHT22;64852;48.092;-1.640;2023-04-03T04:11:54;6.40;99.90
76120;DHT22;64852;48.092;-1.640;2023-04-03T04:14:20;6.00;99.90
76120;DHT22;64852;48.092;-1.640;2023-04-03T04:16:46;6.80;99.90
76120;DHT22;64852;48.092;-1.640;2023-04-03T04:19:12;6.00;99.90
76120;DHT22;64852;48.092;-1.640;2023-04-03T04:21:37;6.50;99.90
76120;DHT22;64852;48.092;-1.640;2023-04-03T04:24:03;6.00;99.90
76120;DHT22;64852;48.092;-1.640;2023-04-03T04:26:28;5.90;99.90
76120;DHT22;64852;48.092;-1.640;2023-04-03T04:28:54;6.70;99.90
76120;DHT22;64852;48.092;-1.640;2023-04-03T04:31:20;5.80;99.90
76120;DHT22;64852;48.092;-1.640;2023-04-03T04:33:45;5.90;99.90
76120;DHT22;64852;48.092;-1.640;2023-04-03T04:36:11;6.90;99.90
76120;DHT22;64852;48.092;-1.640;2023-04-03T04:38:36;6.20;99.90
76120;DHT22;64852;48.092;-1.640;2023-04-03T04:41:02;6.30;99.90
76120;DHT22;64852;48.092;-1.640;2023-04-03T04:43:27;5.80;99.90
76120;DHT22;64852;48.092;-1.640;2023-04-03T04:46:02;6.20;99.90
76120;DHT22;64852;48.092;-1.640;2023-04-03T04:48:28;5.70;99.90
76120;DHT22;64852;48.092;-1.640;2023-04-03T04:50:53;5.80;99.90
76120;DHT22;64852;48.092;-1.640;2023-04-03T04:53:19;6.30;99.90
76120;DHT22;64852;48.092;-1.640;2023-04-03T04:55:44;6.50;99.90
76120;DHT22;64852;48.092;-1.640;2023-04-03T04:58:10;6.50;99.90
76120;DHT22;64852;48.092;-1.640;2023-04-03T05:00:35;6.40;99.90
76120;DHT22;64852;48.092;-1.640;2023-04-03T05:03:01;6.70;99.90
76120;DHT22;64852;48.092;-1.640;2023-04-03T05:05:26;5.90;99.90
76120;DHT22;64852;48.092;-1.640;2023-04-03T05:07:52;6.80;99.90
76120;DHT22;64852;48.092;-1.640;2023-04-03T05:10:17;5.80;99.90
76120;DHT22;64852;48.092;-1.640;2023-04-03T05:12:43;6.50;99.90
76120;DHT22;64852;48.092;-1.640;2023-04-03T05:15:08;6.60;99.90
76120;DHT22;64852;48.092;-1.640;2023-04-03T05:17:34;6.00;99.90
76120;DHT22;64852;48.092;-1.640;2023-04-03T05:20:00;6.80;99.90
76120;DHT22;64852;48.092;-1.640;2023-04-03T05:22:25;6.10;99.90
76120;DHT22;64852;48.092;-1.640;2023-04-03T05:24:51;7.20;99.90
76120;DHT22;64852;48.092;-1.640;2023-04-03T05:27:16;6.30;99.90
76120;DHT22;64852;48.092;-1.640;2023-04-03T05:29:42;7.00;99.90
76120;DHT22;64852;48.092;-1.640;2023-04-03T05:32:09;6.10;99.90
76120;DHT22;64852;48.092;-1.640;2023-04-03T05:34:35;6.70;99.90
76120;DHT22;64852;48.092;-1.640;2023-04-03T05:37:00;6.10;99.90
76120;DHT22;64852;48.092;-1.640;2023-04-03T05:39:28;6.20;99.90
76120;DHT22;64852;48.092;-1.640;2023-04-03T05:41:53;6.30;99.90
76120;DHT22;64852;48.092;-1.640;2023-04-03T05:44:19;6.10;99.90
76120;DHT22;64852;48.092;-1.640;2023-04-03T05:46:45;6.10;99.90
76120;DHT22;64852;48.092;-1.640;2023-04-03T05:49:10;6.20;99.90
76120;DHT22;64852;48.092;-1.640;2023-04-03T05:51:36;7.10;99.90
76120;DHT22;64852;48.092;-1.640;2023-04-03T05:56:33;6.30;99.90
76120;DHT22;64852;48.092;-1.640;2023-04-03T05:58:59;6.40;99.90
76120;DHT22;64852;48.092;-1.640;2023-04-03T06:01:25;7.20;99.90
76120;DHT22;64852;48.092;-1.640;2023-04-03T06:03:50;6.50;99.90
76120;DHT22;64852;48.092;-1.640;2023-04-03T06:06:16;6.50;99.90
76120;DHT22;64852;48.092;-1.640;2023-04-03T06:08:41;7.40;99.90
76120;DHT22;64852;48.092;-1.640;2023-04-03T06:11:07;6.60;99.90
76120;DHT22;64852;48.092;-1.640;2023-04-03T06:13:34;6.60;99.90
76120;DHT22;64852;48.092;-1.640;2023-04-03T06:16:00;6.60;99.90
76120;DHT22;64852;48.092;-1.640;2023-04-03T06:18:26;6.50;99.90
76120;DHT22;64852;48.092;-1.640;2023-04-03T06:20:51;7.20;99.90
76120;DHT22;64852;48.092;-1.640;2023-04-03T06:23:17;7.10;99.90
76120;DHT22;64852;48.092;-1.640;2023-04-03T06:25:42;7.40;99.90
76120;DHT22;64852;48.092;-1.640;2023-04-03T06:28:08;6.50;99.90
76120;DHT22;64852;48.092;-1.640;2023-04-03T06:30:35;6.90;99.90
76120;DHT22;64852;48.092;-1.640;2023-04-03T06:33:01;7.10;99.90
76120;DHT22;64852;48.092;-1.640;2023-04-03T06:35:27;7.30;99.90
76120;DHT22;64852;48.092;-1.640;2023-04-03T06:37:53;6.60;99.90
76120;DHT22;64852;48.092;-1.640;2023-04-03T06:40:20;6.70;99.90
76120;DHT22;64852;48.092;-1.640;2023-04-03T06:42:46;6.70;99.90
76120;DHT22;64852;48.092;-1.640;2023-04-03T06:45:12;6.90;99.90
76120;DHT22;64852;48.092;-1.640;2023-04-03T06:47:37;6.90;99.90
76120;DHT22;64852;48.092;-1.640;2023-04-03T06:50:03;6.80;99.90
76120;DHT22;64852;48.092;-1.640;2023-04-03T06:52:28;6.80;99.90
76120;DHT22;64852;48.092;-1.640;2023-04-03T06:54:54;7.30;99.90
76120;DHT22;64852;48.092;-1.640;2023-04-03T06:57:22;6.90;99.90
76120;DHT22;64852;48.092;-1.640;2023-04-03T06:59:48;7.60;99.90
76120;DHT22;64852;48.092;-1.640;2023-04-03T07:02:14;7.10;99.90
76120;DHT22;64852;48.092;-1.640;2023-04-03T07:04:40;7.10;99.90
76120;DHT22;64852;48.092;-1.640;2023-04-03T07:07:05;7.30;99.90
76120;DHT22;64852;48.092;-1.640;2023-04-03T07:09:31;7.60;99.90
76120;DHT22;64852;48.092;-1.640;2023-04-03T07:11:56;8.00;99.90
76120;DHT22;64852;48.092;-1.640;2023-04-03T07:14:22;7.50;99.90
76120;DHT22;64852;48.092;-1.640;2023-04-03T07:16:47;7.40;99.90
76120;DHT22;64852;48.092;-1.640;2023-04-03T07:19:13;7.60;99.90
76120;DHT22;64852;48.092;-1.640;2023-04-03T07:21:39;7.50;99.90
76120;DHT22;64852;48.092;-1.640;2023-04-03T07:24:07;7.50;99.90
76120;DHT22;64852;48.092;-1.640;2023-04-03T07:26:32;7.50;99.90
76120;DHT22;64852;48.092;-1.640;2023-04-03T07:28:58;7.70;99.90
76120;DHT22;64852;48.092;-1.640;2023-04-03T07:31:24;7.80;99.90
76120;DHT22;64852;48.092;-1.640;2023-04-03T07:33:50;8.50;99.90
76120;DHT22;64852;48.092;-1.640;2023-04-03T07:36:18;7.80;99.90
76120;DHT22;64852;48.092;-1.640;2023-04-03T07:38:43;7.80;99.90
76120;DHT22;64852;48.092;-1.640;2023-04-03T07:41:11;7.70;99.90
76120;DHT22;64852;48.092;-1.640;2023-04-03T07:43:37;7.60;99.90
76120;DHT22;64852;48.092;-1.640;2023-04-03T07:46:04;7.80;99.90
76120;DHT22;64852;48.092;-1.640;2023-04-03T07:48:29;7.90;99.90
76120;DHT22;64852;48.092;-1.640;2023-04-03T07:50:58;8.40;99.90
76120;DHT22;64852;48.092;-1.640;2023-04-03T07:53:24;9.00;99.90
76120;DHT22;64852;48.092;-1.640;2023-04-03T07:55:49;8.80;99.90
76120;DHT22;64852;48.092;-1.640;2023-04-03T07:58:17;8.10;99.90
76120;DHT22;64852;48.092;-1.640;2023-04-03T08:00:43;8.20;99.90
76120;DHT22;64852;48.092;-1.640;2023-04-03T08:03:09;8.00;99.90
76120;DHT22;64852;48.092;-1.640;2023-04-03T08:05:39;8.10;99.90
76120;DHT22;64852;48.092;-1.640;2023-04-03T08:08:05;7.90;99.90
76120;DHT22;64852;48.092;-1.640;2023-04-03T08:10:31;7.90;99.90
76120;DHT22;64852;48.092;-1.640;2023-04-03T08:12:57;8.10;99.90
76120;DHT22;64852;48.092;-1.640;2023-04-03T08:15:22;8.10;99.90
76120;DHT22;64852;48.092;-1.640;2023-04-03T08:17:48;8.90;99.90
76120;DHT22;64852;48.092;-1.640;2023-04-03T08:20:14;8.20;99.90
76120;DHT22;64852;48.092;-1.640;2023-04-03T08:22:40;8.00;99.90
76120;DHT22;64852;48.092;-1.640;2023-04-03T08:25:05;8.00;99.90
76120;DHT22;64852;48.092;-1.640;2023-04-03T08:27:32;8.00;99.90
76120;DHT22;64852;48.092;-1.640;2023-04-03T08:29:57;9.20;99.90
76120;DHT22;64852;48.092;-1.640;2023-04-03T08:32:23;8.20;99.90
76120;DHT22;64852;48.092;-1.640;2023-04-03T08:34:49;8.40;99.90
76120;DHT22;64852;48.092;-1.640;2023-04-03T08:37:15;8.90;99.90
76120;DHT22;64852;48.092;-1.640;2023-04-03T08:39:41;8.30;99.90
76120;DHT22;64852;48.092;-1.640;2023-04-03T08:42:51;8.20;99.90
76120;DHT22;64852;48.092;-1.640;2023-04-03T08:47:46;8.40;99.90
76120;DHT22;64852;48.092;-1.640;2023-04-03T08:50:16;8.40;99.90
76120;DHT22;64852;48.092;-1.640;2023-04-03T08:52:47;8.50;99.90
76120;DHT22;64852;48.092;-1.640;2023-04-03T08:57:40;9.30;99.90
76120;DHT22;64852;48.092;-1.640;2023-04-03T09:00:15;8.70;99.90
76120;DHT22;64852;48.092;-1.640;2023-04-03T09:02:49;8.50;99.90
76120;DHT22;64852;48.092;-1.640;2023-04-03T09:05:17;8.60;99.90
76120;DHT22;64852;48.092;-1.640;2023-04-03T09:07:50;8.60;99.90
76120;DHT22;64852;48.092;-1.640;2023-04-03T09:10:19;8.70;99.90
76120;DHT22;64852;48.092;-1.640;2023-04-03T09:12:49;8.70;99.90
76120;DHT22;64852;48.092;-1.640;2023-04-03T09:15:22;8.70;99.90
76120;DHT22;64852;48.092;-1.640;2023-04-03T09:18:03;8.60;99.90
76120;DHT22;64852;48.092;-1.640;2023-04-03T09:23:15;8.70;99.90
76120;DHT22;64852;48.092;-1.640;2023-04-03T09:25:42;8.90;99.90
76120;DHT22;64852;48.092;-1.640;2023-04-03T09:28:09;8.90;99.90
76120;DHT22;64852;48.092;-1.640;2023-04-03T09:30:35;9.00;99.90
76120;DHT22;64852;48.092;-1.640;2023-04-03T09:33:01;8.80;99.90
76120;DHT22;64852;48.092;-1.640;2023-04-03T09:37:53;9.00;99.90
76120;DHT22;64852;48.092;-1.640;2023-04-03T09:42:50;9.20;99.90
76120;DHT22;64852;48.092;-1.640;2023-04-03T09:45:30;9.10;99.90
76120;DHT22;64852;48.092;-1.640;2023-04-03T09:50:37;8.90;99.90
76120;DHT22;64852;48.092;-1.640;2023-04-03T09:53:04;9.00;99.90
76120;DHT22;64852;48.092;-1.640;2023-04-03T09:55:30;9.10;99.90
76120;DHT22;64852;48.092;-1.640;2023-04-03T09:57:57;9.00;99.90
76120;DHT22;64852;48.092;-1.640;2023-04-03T10:00:25;9.00;99.90
76120;DHT22;64852;48.092;-1.640;2023-04-03T10:02:51;9.10;99.90
76120;DHT22;64852;48.092;-1.640;2023-04-03T10:10:42;9.30;99.90
76120;DHT22;64852;48.092;-1.640;2023-04-03T10:13:12;9.30;99.90
76120;DHT22;64852;48.092;-1.640;2023-04-03T10:15:45;9.30;99.90
76120;DHT22;64852;48.092;-1.640;2023-04-03T10:18:32;9.40;99.90
76120;DHT22;64852;48.092;-1.640;2023-04-03T10:21:02;9.60;99.90
76120;DHT22;64852;48.092;-1.640;2023-04-03T10:23:54;9.80;99.90
76120;DHT22;64852;48.092;-1.640;2023-04-03T10:28:57;9.90;99.90
76120;DHT22;64852;48.092;-1.640;2023-04-03T10:31:37;9.90;99.90
76120;DHT22;64852;48.092;-1.640;2023-04-03T10:34:11;9.70;99.90
76120;DHT22;64852;48.092;-1.640;2023-04-03T10:36:46;9.80;99.90
76120;DHT22;64852;48.092;-1.640;2023-04-03T10:39:22;9.90;99.90
76120;DHT22;64852;48.092;-1.640;2023-04-03T10:41:55;9.80;99.90
76120;DHT22;64852;48.092;-1.640;2023-04-03T10:47:20;9.80;99.90
76120;DHT22;64852;48.092;-1.640;2023-04-03T10:49:47;9.90;99.90
76120;DHT22;64852;48.092;-1.640;2023-04-03T10:52:17;10.00;99.90
76120;DHT22;64852;48.092;-1.640;2023-04-03T10:57:20;10.40;99.90
76120;DHT22;64852;48.092;-1.640;2023-04-03T10:59:51;10.50;99.90
76120;DHT22;64852;48.092;-1.640;2023-04-03T11:04:44;11.10;99.90
76120;DHT22;64852;48.092;-1.640;2023-04-03T11:07:33;11.20;99.90
76120;DHT22;64852;48.092;-1.640;2023-04-03T11:10:03;11.60;99.90
76120;DHT22;64852;48.092;-1.640;2023-04-03T11:14:59;11.30;99.90
76120;DHT22;64852;48.092;-1.640;2023-04-03T11:17:30;11.30;99.90
76120;DHT22;64852;48.092;-1.640;2023-04-03T11:22:26;11.20;99.90
76120;DHT22;64852;48.092;-1.640;2023-04-03T11:35:24;11.80;99.90
76120;DHT22;64852;48.092;-1.640;2023-04-03T11:37:52;11.90;99.90
76120;DHT22;64852;48.092;-1.640;2023-04-03T11:40:24;12.90;99.90
76120;DHT22;64852;48.092;-1.640;2023-04-03T11:42:52;12.20;99.90
76120;DHT22;64852;48.092;-1.640;2023-04-03T11:45:25;12.40;99.90
76120;DHT22;64852;48.092;-1.640;2023-04-03T11:48:00;14.70;99.90
76120;DHT22;64852;48.092;-1.640;2023-04-03T12:16:26;14.50;99.90
76120;DHT22;64852;48.092;-1.640;2023-04-03T12:21:20;15.20;95.90
76120;DHT22;64852;48.092;-1.640;2023-04-03T12:31:43;18.10;99.90
76120;DHT22;64852;48.092;-1.640;2023-04-03T12:34:18;18.60;74.60
76120;DHT22;64852;48.092;-1.640;2023-04-03T12:37:37;19.00;91.60
76120;DHT22;64852;48.092;-1.640;2023-04-03T12:47:34;20.60;75.80
76120;DHT22;64852;48.092;-1.640;2023-04-03T12:50:02;20.50;73.70
76120;DHT22;64852;48.092;-1.640;2023-04-03T12:54:55;21.00;66.00
76120;DHT22;64852;48.092;-1.640;2023-04-03T12:57:23;21.40;79.10
76120;DHT22;64852;48.092;-1.640;2023-04-03T12:59:49;21.90;75.20
76120;DHT22;64852;48.092;-1.640;2023-04-03T13:04:51;22.50;72.10
76120;DHT22;64852;48.092;-1.640;2023-04-03T13:07:21;22.80;78.00
76120;DHT22;64852;48.092;-1.640;2023-04-03T13:09:55;23.20;79.30
76120;DHT22;64852;48.092;-1.640;2023-04-03T13:12:20;23.50;61.10
76120;DHT22;64852;48.092;-1.640;2023-04-03T13:14:54;23.80;67.80
76120;DHT22;64852;48.092;-1.640;2023-04-03T13:17:20;24.00;63.40
76120;DHT22;64852;48.092;-1.640;2023-04-03T13:19:46;24.20;67.90
76120;DHT22;64852;48.092;-1.640;2023-04-03T13:22:24;24.10;52.90
76120;DHT22;64852;48.092;-1.640;2023-04-03T13:24:51;24.10;56.60
76120;DHT22;64852;48.092;-1.640;2023-04-03T13:27:18;24.00;57.60
76120;DHT22;64852;48.092;-1.640;2023-04-03T13:29:48;24.30;55.80
76120;DHT22;64852;48.092;-1.640;2023-04-03T13:32:19;24.60;56.90
76120;DHT22;64852;48.092;-1.640;2023-04-03T13:34:45;25.10;59.90
76120;DHT22;64852;48.092;-1.640;2023-04-03T13:37:21;25.50;59.00
76120;DHT22;64852;48.092;-1.640;2023-04-03T13:39:56;25.90;51.90
76120;DHT22;64852;48.092;-1.640;2023-04-03T13:42:23;26.00;53.80
76120;DHT22;64852;48.092;-1.640;2023-04-03T13:45:05;26.30;53.30
76120;DHT22;64852;48.092;-1.640;2023-04-03T13:47:37;26.60;52.70
76120;DHT22;64852;48.092;-1.640;2023-04-03T13:50:12;26.50;48.50
76120;DHT22;64852;48.092;-1.640;2023-04-03T13:53:00;26.60;51.70
76120;DHT22;64852;48.092;-1.640;2023-04-03T13:55:35;26.90;51.90
76120;DHT22;64852;48.092;-1.640;2023-04-03T13:58:02;27.30;52.20
76120;DHT22;64852;48.092;-1.640;2023-04-03T14:00:38;27.60;47.80
76120;DHT22;64852;48.092;-1.640;2023-04-03T14:03:28;27.60;44.00
76120;DHT22;64852;48.092;-1.640;2023-04-03T14:05:50;27.50;47.80
76120;DHT22;64852;48.092;-1.640;2023-04-03T14:08:16;27.50;44.20
76120;DHT22;64852;48.092;-1.640;2023-04-03T14:10:42;27.50;46.70
76120;DHT22;64852;48.092;-1.640;2023-04-03T14:13:14;27.80;43.40
76120;DHT22;64852;48.092;-1.640;2023-04-03T14:15:40;27.80;43.70
76120;DHT22;64852;48.092;-1.640;2023-04-03T14:18:06;28.00;42.80
76120;DHT22;64852;48.092;-1.640;2023-04-03T14:20:31;27.90;42.60
76120;DHT22;64852;48.092;-1.640;2023-04-03T14:22:57;27.90;41.30
76120;DHT22;64852;48.092;-1.640;2023-04-03T14:25:23;28.20;44.60
76120;DHT22;64852;48.092;-1.640;2023-04-03T14:27:51;28.20;41.10
76120;DHT22;64852;48.092;-1.640;2023-04-03T14:30:19;28.00;38.50
76120;DHT22;64852;48.092;-1.640;2023-04-03T14:32:46;28.00;41.30
76120;DHT22;64852;48.092;-1.640;2023-04-03T14:35:12;28.20;42.50
76120;DHT22;64852;48.092;-1.640;2023-04-03T14:37:38;28.60;39.80
76120;DHT22;64852;48.092;-1.640;2023-04-03T14:40:04;28.60;38.30
76120;DHT22;64852;48.092;-1.640;2023-04-03T14:42:31;27.80;35.50
76120;DHT22;64852;48.092;-1.640;2023-04-03T14:44:58;28.10;41.30
76120;DHT22;64852;48.092;-1.640;2023-04-03T14:47:24;28.60;40.50
76120;DHT22;64852;48.092;-1.640;2023-04-03T14:49:51;28.70;38.70
76120;DHT22;64852;48.092;-1.640;2023-04-03T14:52:38;28.70;38.50
76120;DHT22;64852;48.092;-1.640;2023-04-03T14:55:04;28.80;37.70
76120;DHT22;64852;48.092;-1.640;2023-04-03T14:57:29;28.70;36.50
76120;DHT22;64852;48.092;-1.640;2023-04-03T14:59:55;28.70;38.10
76120;DHT22;64852;48.092;-1.640;2023-04-03T15:04:46;29.50;35.70
76120;DHT22;64852;48.092;-1.640;2023-04-03T15:07:12;29.60;37.90
76120;DHT22;64852;48.092;-1.640;2023-04-03T15:09:37;29.90;37.10
76120;DHT22;64852;48.092;-1.640;2023-04-03T15:12:03;29.90;36.80
76120;DHT22;64852;48.092;-1.640;2023-04-03T15:14:28;29.30;31.20
76120;DHT22;64852;48.092;-1.640;2023-04-03T15:16:54;29.60;37.50
76120;DHT22;64852;48.092;-1.640;2023-04-03T15:19:19;30.20;35.80
76120;DHT22;64852;48.092;-1.640;2023-04-03T15:21:45;29.90;34.50
76120;DHT22;64852;48.092;-1.640;2023-04-03T15:24:10;29.30;32.60
76120;DHT22;64852;48.092;-1.640;2023-04-03T15:26:36;29.60;34.90
76120;DHT22;64852;48.092;-1.640;2023-04-03T15:29:02;30.00;33.70
76120;DHT22;64852;48.092;-1.640;2023-04-03T15:31:28;30.20;34.50
76120;DHT22;64852;48.092;-1.640;2023-04-03T15:33:54;30.50;32.30
76120;DHT22;64852;48.092;-1.640;2023-04-03T15:36:19;30.70;34.30
76120;DHT22;64852;48.092;-1.640;2023-04-03T15:38:45;31.00;32.10
76120;DHT22;64852;48.092;-1.640;2023-04-03T15:41:10;30.90;30.50
76120;DHT22;64852;48.092;-1.640;2023-04-03T15:43:36;30.60;29.90
76120;DHT22;64852;48.092;-1.640;2023-04-03T15:46:05;30.10;30.00
76120;DHT22;64852;48.092;-1.640;2023-04-03T15:48:30;30.60;30.70
76120;DHT22;64852;48.092;-1.640;2023-04-03T15:50:56;30.50;31.30
76120;DHT22;64852;48.092;-1.640;2023-04-03T15:53:21;30.10;28.20
76120;DHT22;64852;48.092;-1.640;2023-04-03T15:55:47;29.40;29.20
76120;DHT22;64852;48.092;-1.640;2023-04-03T15:58:12;28.60;28.40
76120;DHT22;64852;48.092;-1.640;2023-04-03T16:00:38;27.80;28.80
76120;DHT22;64852;48.092;-1.640;2023-04-03T16:03:05;27.10;29.00
76120;DHT22;64852;48.092;-1.640;2023-04-03T16:05:31;26.30;28.40
76120;DHT22;64852;48.092;-1.640;2023-04-03T16:07:58;25.60;29.00
76120;DHT22;64852;48.092;-1.640;2023-04-03T16:10:24;25.10;29.50
76120;DHT22;64852;48.092;-1.640;2023-04-03T16:12:50;24.70;30.00
76120;DHT22;64852;48.092;-1.640;2023-04-03T16:15:16;24.00;29.60
76120;DHT22;64852;48.092;-1.640;2023-04-03T16:17:41;23.60;30.90
76120;DHT22;64852;48.092;-1.640;2023-04-03T16:20:07;23.10;30.80
76120;DHT22;64852;48.092;-1.640;2023-04-03T16:22:33;22.70;31.50
76120;DHT22;64852;48.092;-1.640;2023-04-03T16:24:59;22.40;31.80
76120;DHT22;64852;48.092;-1.640;2023-04-03T16:27:25;22.00;32.00
76120;DHT22;64852;48.092;-1.640;2023-04-03T16:29:56;21.70;32.00
76120;DHT22;64852;48.092;-1.640;2023-04-03T16:32:22;21.40;32.40
76120;DHT22;64852;48.092;-1.640;2023-04-03T16:34:48;21.10;32.80
76120;DHT22;64852;48.092;-1.640;2023-04-03T16:37:14;20.90;33.00
76120;DHT22;64852;48.092;-1.640;2023-04-03T16:39:40;20.70;33.60
76120;DHT22;64852;48.092;-1.640;2023-04-03T16:42:05;20.40;33.90
76120;DHT22;64852;48.092;-1.640;2023-04-03T16:44:31;20.10;33.90
76120;DHT22;64852;48.092;-1.640;2023-04-03T16:46:57;21.30;35.00
76120;DHT22;64852;48.092;-1.640;2023-04-03T16:49:22;19.80;34.70
76120;DHT22;64852;48.092;-1.640;2023-04-03T16:51:48;19.60;34.80
76120;DHT22;64852;48.092;-1.640;2023-04-03T16:54:14;19.50;35.50
76120;DHT22;64852;48.092;-1.640;2023-04-03T16:56:39;19.30;35.40
76120;DHT22;64852;48.092;-1.640;2023-04-03T16:59:05;19.20;36.00
76120;DHT22;64852;48.092;-1.640;2023-04-03T17:01:31;19.20;36.20
76120;DHT22;64852;48.092;-1.640;2023-04-03T17:03:56;19.20;36.30
76120;DHT22;64852;48.092;-1.640;2023-04-03T17:06:22;19.00;36.30
76120;DHT22;64852;48.092;-1.640;2023-04-03T17:08:49;19.00;36.70
76120;DHT22;64852;48.092;-1.640;2023-04-03T17:11:14;19.00;36.70
76120;DHT22;64852;48.092;-1.640;2023-04-03T17:13:40;18.90;36.70
76120;DHT22;64852;48.092;-1.640;2023-04-03T17:16:07;18.80;37.00
76120;DHT22;64852;48.092;-1.640;2023-04-03T17:18:33;18.80;37.40